MYST2: Pat Mayse Lake

Data processed at Sat Mar 10 2018 23:50


All information presented herein is the property of the government of the United States of America and may be revised or deleted at any time without prior notice.
Dissemination of this information without the expressed written consent of the Public Affairs Office, Tulsa District U.S. Army Corps of Engineers is strictly prohibited.
These data are gathered electronically and, as presented, have not undergone any form of quality control. These data are not guaranteed to be valid or correct.
Go to home page.
Go to station list.

Downstream station:


Previous Day
Next Day
Current Day
    
SHEF ID:       MYST2     Pat Mayse Lake
STATION TYPE:  RESERVOIR
Normal Pool:  Bottom =   415.00, Top =   451.00

               PRECIP PRECIP(A) ELEVATION   STORAGE    INFLOW   RELEASE  AIR-TEMP  WIND-DIRWIND-SPEED REL-HUMID SOLAR-RAD   VOLTAGE  BAT-LOAD
                   in        in        ft     ac-ft       cfs       cfs         F       deg       mph         %      W/m2      volt      volt
              Ccp-Rev   Ccp-Rev   Ccp-Rev   Ccp-Rev  Regi-Rev  Regi-Rev   Ccp-Rev   Ccp-Rev   Ccp-Rev   Ccp-Rev   Ccp-Rev   Ccp-Rev   Ccp-Rev
(US/Central)
03/08 00:00      0.00      ----    460.38    179987         0       778     40.17    136.30      2.20     48.06      0.00     12.91     12.65
03/08 01:00      0.00      ----    460.37    179910         0       778     39.70    139.00      3.20     61.72      0.00     12.90     12.65
03/08 02:00      0.00      ----    460.36    179834         0       777     39.02    132.50      3.10     61.83      0.00     12.88     12.65
03/08 03:00      0.00      ----    460.35    179757         0       777     38.73    134.70      3.00     51.57      0.00     12.87     12.65
03/08 04:00      0.00      ----    460.34    179681         0       777     38.30    134.10      2.80     54.02      0.00     12.83     12.65
03/08 05:00      0.00      ----    460.34    179681         0       777     35.73    358.30      1.90     61.73      0.00     12.81     12.65
03/08 06:00      0.00      ----    460.33    179604         0       777     32.54    335.20      3.10     70.19      0.00     12.82     12.57
03/08 07:00      0.00      ----    460.31    179451         0       776     32.02    347.50      2.20     63.53      0.00     12.83     12.57
03/08 08:00      0.00      ----    460.30    179375         0       776     34.30    296.40      0.90     66.83     87.60     13.12     12.57
03/08 09:00      0.00      ----    460.30    179375         0       776     40.73    301.00      1.40     49.55    320.10     13.75     12.81
03/08 10:00      0.00      ----    460.29    179298         0       776     46.15    208.30      1.60     32.32    481.90     13.85     13.05
03/08 11:00      0.00      ----    460.27    179145         0       776     51.35    144.00      1.90     23.01    651.30     13.49     13.21
03/08 12:00      0.00      ----    460.26    179069         0       775     55.96    158.60      3.20     15.82    763.40     14.80     13.37
03/08 13:00      0.00      ----    460.25    178992         0       775     59.11    145.60      3.20     10.79    701.10     15.17     14.24
03/08 14:00      0.00      ----    460.24    178916         0       775     60.06    184.30      5.50     12.27    753.40     15.06     14.56
03/08 15:00      0.00      ----    460.23    178839         0       775     62.02    195.80      4.00     11.22    643.70     14.99     14.24
03/08 16:00      0.00      ----    460.22    178763         0       775     63.45    156.00      2.50      9.77    476.70     14.35     14.32
03/08 17:00      0.00      ----    460.20    178610         0       774     62.28    129.10      6.90     12.09    167.10     13.87     13.21
03/08 18:00      0.00      ----    460.19    178533         0       774     61.79    139.80      9.50     11.87    110.60     13.25     13.05
03/08 19:00      0.00      ----    460.18    178457         0       771     59.61    125.20      4.40     14.92      4.00     13.08     12.89
03/08 20:00      0.00      ----    460.18    178457         1       771     56.73    121.10      6.00     15.95      0.00     13.03     12.81
03/08 21:00      0.00      ----    460.16    178304         2       773     55.11    124.30      6.70     19.15      0.00     12.98     12.73
03/08 22:00      0.00      ----    460.15    178227         2       773     53.85    123.70      7.60     19.34      0.00     12.95     12.73
03/08 23:00      0.00      ----    460.15    178227        33       773     53.42    124.80      9.10     19.96      0.00     12.92     12.65